Time;durP1;ratioP1;P1;durP2;ratioP2;P2;SDS_P1;SDS_P2;PMS_P1;PMS_P2;Temp;Humidity;BMP_temperature;BMP_pressure;BME280_temperature;BME280_humidity;BME280_pressure;Samples;Min_cycle;Max_cycle;Signal;HPM_P1;HPM_P2
2022/04/27 00:01:40;;;;;;;36.68;24.92;;;;;;;8.80;79.50;100985.14;1638891;86;25760;-76
2022/04/27 00:04:07;;;;;;;34.83;23.92;;;;;;;8.79;79.89;100987.98;1646184;86;28354;-76
2022/04/27 00:06:34;;;;;;;36.93;25.23;;;;;;;8.69;79.70;100987.28;1651742;85;25842;-76
2022/04/27 00:09:00;;;;;;;31.20;23.35;;;;;;;8.63;79.69;100987.46;1666062;85;25886;-76
2022/04/27 00:11:26;;;;;;;30.77;22.35;;;;;;;8.57;79.53;100985.45;1666676;85;25833;-76
2022/04/27 00:13:53;;;;;;;33.58;24.12;;;;;;;8.52;79.54;100988.61;1666467;85;25592;-76
2022/04/27 00:16:19;;;;;;;33.28;23.32;;;;;;;8.48;79.48;100987.77;1666417;85;26914;-76
2022/04/27 00:18:46;;;;;;;31.20;21.48;;;;;;;8.42;79.56;100989.27;1666172;85;25816;-77
2022/04/27 00:21:12;;;;;;;32.70;21.60;;;;;;;8.39;79.50;100995.41;1663275;85;25794;-76
2022/04/27 00:23:38;;;;;;;35.45;25.17;;;;;;;8.35;79.69;101000.73;1678128;83;26607;-76
2022/04/27 00:26:05;;;;;;;33.90;23.85;;;;;;;8.30;79.93;100999.05;1678437;85;25905;-76
2022/04/27 00:28:31;;;;;;;30.27;23.60;;;;;;;8.26;79.80;100997.70;1668754;85;27522;-76
2022/04/27 00:30:57;;;;;;;34.27;23.70;;;;;;;8.24;79.74;101003.67;1678463;84;26266;-75
2022/04/27 00:33:24;;;;;;;32.83;23.92;;;;;;;8.22;79.51;101000.33;1677984;83;25955;-76
2022/04/27 00:35:51;;;;;;;38.35;26.12;;;;;;;8.18;79.36;101000.32;1678437;85;25849;-76
2022/04/27 00:38:17;;;;;;;35.95;24.27;;;;;;;8.15;79.46;101001.96;1678198;85;25285;-76
2022/04/27 00:40:44;;;;;;;36.17;26.33;;;;;;;8.11;79.50;101008.62;1678366;85;27571;-76
2022/04/27 00:43:15;;;;;;;36.70;26.97;;;;;;;8.06;79.56;101009.63;1679027;83;25632;-76
2022/04/27 00:45:42;;;;;;;38.33;26.27;;;;;;;8.05;79.62;101005.27;1679116;84;25929;-75
2022/04/27 00:48:09;;;;;;;35.65;26.10;;;;;;;8.03;79.32;101012.59;1677936;85;27082;-76
2022/04/27 00:50:36;;;;;;;40.50;26.62;;;;;;;7.95;79.31;101013.91;1678164;85;25815;-76
2022/04/27 00:53:02;;;;;;;37.13;23.02;;;;;;;7.91;79.62;101015.22;1678061;85;28779;-77
2022/04/27 00:55:30;;;;;;;95.70;19.37;;;;;;;7.89;79.94;101018.55;1678592;85;25785;-77
2022/04/27 00:57:59;;;;;;;30.32;20.35;;;;;;;7.78;79.13;101030.33;1678077;85;25337;-78
2022/04/27 01:00:25;;;;;;;27.95;18.90;;;;;;;7.58;79.17;101025.70;1667517;85;26610;-77
2022/04/27 01:02:51;;;;;;;33.28;19.23;;;;;;;7.46;79.36;101022.94;1677769;85;25800;-77
2022/04/27 01:05:21;;;;;;;41.75;17.48;;;;;;;7.37;79.60;101030.56;1678122;85;27617;-77
2022/04/27 01:07:47;;;;;;;27.60;18.73;;;;;;;7.26;79.72;101030.80;1664267;85;25759;-77
2022/04/27 01:10:13;;;;;;;27.25;20.72;;;;;;;7.13;79.98;101025.52;1649600;85;25851;-77
2022/04/27 01:12:41;;;;;;;31.30;20.95;;;;;;;7.08;80.36;101023.84;1649691;86;25921;-77
2022/04/27 01:15:10;;;;;;;26.68;19.55;;;;;;;7.07;80.39;101027.47;1649234;86;25764;-77
2022/04/27 01:17:36;;;;;;;29.52;20.65;;;;;;;7.03;80.38;101026.95;1649449;86;28404;-77
2022/04/27 01:20:04;;;;;;;27.77;18.95;;;;;;;7.00;80.38;101032.09;1649457;86;25882;-77
2022/04/27 01:22:31;;;;;;;26.70;19.42;;;;;;;7.00;80.53;101029.91;1638702;85;26036;-77
2022/04/27 01:24:57;;;;;;;24.30;18.85;;;;;;;6.98;80.67;101028.74;1649506;85;26588;-77
2022/04/27 01:27:24;;;;;;;24.02;18.48;;;;;;;6.97;80.83;101028.39;1649847;86;25761;-77
2022/04/27 01:29:50;;;;;;;26.68;17.90;;;;;;;6.98;80.96;101026.57;1649619;86;27631;-77
2022/04/27 01:32:16;;;;;;;25.48;18.87;;;;;;;6.99;81.18;101029.07;1649429;86;26382;-79
2022/04/27 01:34:44;;;;;;;27.90;19.73;;;;;;;7.00;81.07;101029.42;1649478;85;26160;-77
2022/04/27 01:39:56;;;;;;;34.33;22.15;;;;;;;6.93;81.10;101031.50;1649923;86;25303;-77
2022/04/27 01:42:22;;;;;;;30.30;20.80;;;;;;;6.93;81.30;101030.17;1638698;86;28290;-77
2022/04/27 01:44:48;;;;;;;29.98;21.25;;;;;;;6.93;81.19;101029.69;1649265;86;25862;-77
2022/04/27 01:47:14;;;;;;;29.42;21.20;;;;;;;6.95;81.36;101034.85;1640116;85;26590;-77
2022/04/27 01:49:40;;;;;;;33.18;22.40;;;;;;;6.95;81.36;101033.03;1649810;86;26533;-77
2022/04/27 01:54:52;;;;;;;31.87;22.48;;;;;;;6.97;81.92;101034.23;1649566;85;28497;-75
2022/04/27 01:57:19;;;;;;;25.90;20.10;;;;;;;6.97;81.67;101043.03;1649580;86;25880;-76
2022/04/27 01:59:45;;;;;;;29.37;21.40;;;;;;;6.97;81.61;101035.56;1650006;85;25319;-76
2022/04/27 02:02:11;;;;;;;28.42;21.33;;;;;;;6.94;81.41;101035.38;1649446;86;25832;-76
2022/04/27 02:04:40;;;;;;;32.67;22.27;;;;;;;6.92;81.27;101035.17;1649677;85;25843;-76
2022/04/27 02:07:08;;;;;;;30.17;20.55;;;;;;;6.92;81.20;101037.84;1620941;85;27485;-77
2022/04/27 02:09:35;;;;;;;28.85;20.68;;;;;;;6.90;81.01;101031.83;1649774;86;25823;-75
2022/04/27 02:12:06;;;;;;;31.48;21.70;;;;;;;6.88;80.99;101030.66;1649616;86;25785;-76
2022/04/27 02:14:33;;;;;;;30.12;20.70;;;;;;;6.87;81.12;101029.45;1640629;86;26859;-75
2022/04/27 02:17:00;;;;;;;32.85;21.12;;;;;;;6.85;81.13;101030.11;1649688;86;25930;-76
2022/04/27 02:19:26;;;;;;;30.30;21.65;;;;;;;6.83;81.16;101034.27;1650076;86;28248;-76
2022/04/27 02:21:53;;;;;;;33.42;21.85;;;;;;;6.81;81.25;101030.08;1645152;86;26083;-76
2022/04/27 02:24:19;;;;;;;33.30;22.75;;;;;;;6.78;81.09;101029.03;1642266;85;25890;-76
2022/04/27 02:26:45;;;;;;;37.08;24.98;;;;;;;6.74;81.05;101032.50;1649734;86;25815;-76
2022/04/27 02:29:12;;;;;;;34.55;24.30;;;;;;;6.71;81.01;101025.33;1649490;86;26082;-75
2022/04/27 02:31:39;;;;;;;32.50;24.05;;;;;;;6.66;81.00;101035.09;1636599;85;27616;-75
2022/04/27 02:34:05;;;;;;;38.17;24.32;;;;;;;6.61;80.79;101030.70;1639715;86;25883;-75
2022/04/27 02:36:33;;;;;;;34.23;22.55;;;;;;;6.58;80.73;101031.51;1645361;85;26005;-76
2022/04/27 02:38:59;;;;;;;31.17;22.00;;;;;;;6.55;80.72;101029.98;1637369;86;25866;-76
2022/04/27 02:41:27;;;;;;;31.07;22.22;;;;;;;6.53;80.79;101035.11;1647930;86;26040;-75
2022/04/27 02:43:55;;;;;;;33.28;22.52;;;;;;;6.51;80.92;101037.92;1647262;85;27499;-76
2022/04/27 02:46:21;;;;;;;34.53;23.98;;;;;;;6.49;80.93;101036.39;1649970;86;25928;-75
2022/04/27 02:51:51;;;;;;;34.38;23.20;;;;;;;6.41;80.87;101037.64;1649246;86;26941;-76
2022/04/27 02:54:22;;;;;;;45.88;19.92;;;;;;;6.36;81.06;101043.89;1648176;85;25934;-76
2022/04/27 02:56:49;;;;;;;29.05;19.62;;;;;;;6.29;81.30;101044.98;1649768;86;27472;-76
2022/04/27 02:59:16;;;;;;;28.62;20.30;;;;;;;6.26;81.38;101047.11;1623811;86;25784;-76
2022/04/27 03:01:45;;;;;;;28.12;20.00;;;;;;;6.21;81.08;101047.06;1649582;86;25857;-76
2022/04/27 03:04:11;;;;;;;30.75;19.00;;;;;;;6.14;81.04;101047.30;1624689;86;25969;-76
2022/04/27 03:06:39;;;;;;;28.95;19.23;;;;;;;6.11;81.10;101053.41;1650051;85;26076;-76
2022/04/27 03:09:05;;;;;;;24.52;17.95;;;;;;;6.07;81.43;101055.51;1662527;85;27457;-76
2022/04/27 03:11:31;;;;;;;26.07;17.35;;;;;;;6.03;81.41;101058.13;1669596;85;26134;-76
2022/04/27 03:13:59;;;;;;;24.63;16.57;;;;;;;5.97;81.29;101059.19;1666169;84;25761;-76
2022/04/27 03:16:27;;;;;;;24.15;17.92;;;;;;;5.90;81.13;101058.94;1648693;85;26499;-76
2022/04/27 03:18:54;;;;;;;24.90;17.02;;;;;;;5.87;81.17;101063.23;1668312;85;26104;-76
2022/04/27 03:21:20;;;;;;;28.90;18.35;;;;;;;5.86;81.09;101064.72;1649157;85;27536;-76
2022/04/27 03:23:46;;;;;;;26.90;19.05;;;;;;;5.82;80.98;101069.92;1669272;84;25318;-76
2022/04/27 03:26:13;;;;;;;26.93;17.57;;;;;;;5.80;81.43;101076.72;1669470;85;26742;-76
2022/04/27 03:28:39;;;;;;;23.45;16.42;;;;;;;5.79;81.63;101078.20;1669178;85;25899;-76
2022/04/27 03:31:06;;;;;;;20.85;16.62;;;;;;;5.75;81.63;101073.64;1617429;87;26046;-76
2022/04/27 03:33:34;;;;;;;20.55;16.25;;;;;;;5.72;81.39;101078.42;1609844;88;27564;-77
2022/04/27 03:36:01;;;;;;;26.52;18.50;;;;;;;5.66;81.23;101079.00;1668317;85;26014;-77
2022/04/27 03:38:28;;;;;;;27.60;17.55;;;;;;;5.64;81.37;101080.97;1658513;85;25297;-77
2022/04/27 03:40:54;;;;;;;24.65;18.98;;;;;;;5.63;81.52;101082.78;1649702;85;25880;-77
2022/04/27 03:43:21;;;;;;;24.32;17.45;;;;;;;5.63;81.50;101087.24;1663098;85;26262;-77
2022/04/27 03:45:48;;;;;;;25.08;19.40;;;;;;;5.63;81.50;101088.58;1665355;85;27458;-77
2022/04/27 03:48:14;;;;;;;30.80;19.87;;;;;;;5.63;81.64;101095.22;1613399;87;26508;-75
2022/04/27 03:50:40;;;;;;;26.30;19.50;;;;;;;5.65;81.88;101101.23;1665007;85;25945;-76
2022/04/27 03:53:07;;;;;;;27.48;16.75;;;;;;;5.66;81.76;101097.61;1660409;85;25757;-77
2022/04/27 03:55:33;;;;;;;21.68;15.78;;;;;;;5.60;81.44;101103.50;1629994;87;26054;-76
2022/04/27 03:58:03;;;;;;;23.77;16.32;;;;;;;5.52;81.48;101102.86;1608794;88;27477;-78
2022/04/27 04:00:31;;;;;;;38.48;18.15;;;;;;;5.52;81.77;101110.83;1627102;87;26160;-77
2022/04/27 04:03:02;;;;;;;50.63;20.95;;;;;;;5.52;82.05;101108.69;1618550;87;25906;-77
2022/04/27 04:05:28;;;;;;;37.75;20.45;;;;;;;5.51;82.01;101117.63;1625010;87;25941;-77
2022/04/27 04:07:56;;;;;;;32.67;20.20;;;;;;;5.47;81.97;101115.23;1669102;85;25844;-77
2022/04/27 04:10:24;;;;;;;30.55;19.67;;;;;;;5.41;82.03;101115.81;1669275;85;26836;-77
2022/04/27 04:12:51;;;;;;;36.13;20.48;;;;;;;5.39;82.26;101118.25;1662874;85;26007;-77
2022/04/27 04:15:17;;;;;;;23.95;17.55;;;;;;;5.35;82.35;101119.03;1677730;85;25956;-77
2022/04/27 04:17:49;;;;;;;23.73;16.27;;;;;;;5.30;82.49;101123.10;1677512;85;26982;-77
2022/04/27 04:20:26;;;;;;;25.85;18.62;;;;;;;5.31;82.71;101124.77;1675678;85;26281;-77
2022/04/27 04:22:54;;;;;;;27.55;19.57;;;;;;;5.33;82.94;101124.98;1674518;85;28389;-77
2022/04/27 04:30:52;;;;;;;35.88;23.52;;;;;;;5.48;83.61;101136.01;1675169;84;26013;-77
2022/04/27 04:33:29;;;;;;;35.90;23.45;;;;;;;5.56;83.95;101135.32;1661251;84;25753;-77
2022/04/27 04:35:59;;;;;;;38.67;25.57;;;;;;;5.64;84.23;101137.62;1646914;85;27661;-78
2022/04/27 04:38:26;;;;;;;36.68;24.65;;;;;;;5.73;84.71;101146.56;1613613;86;25912;-77
2022/04/27 04:40:54;;;;;;;37.80;24.72;;;;;;;5.78;85.39;101145.63;1605413;87;26547;-77
2022/04/27 04:43:22;;;;;;;39.67;25.15;;;;;;;5.84;85.50;101147.25;1610432;85;26082;-77
2022/04/27 04:45:50;;;;;;;38.05;26.00;;;;;;;5.96;85.92;101151.93;1604032;86;25999;-77
2022/04/27 04:48:26;;;;;;;40.92;26.05;;;;;;;6.04;86.17;101148.90;1534468;91;27576;-77
2022/04/27 04:51:09;;;;;;;40.60;26.60;;;;;;;6.14;86.31;101156.34;1647968;84;25802;-77
2022/04/27 04:53:50;;;;;;;37.15;25.55;;;;;;;6.24;86.59;101162.98;1652755;84;25809;-77
2022/04/27 04:56:18;;;;;;;38.75;26.05;;;;;;;6.33;86.81;101163.41;1642956;84;25844;-77
2022/04/27 04:58:46;;;;;;;38.02;25.50;;;;;;;6.43;86.88;101169.56;1650029;84;25928;-76
2022/04/27 05:01:26;;;;;;;38.85;25.12;;;;;;;6.50;87.09;101172.47;1641826;84;27496;-77
2022/04/27 05:04:07;;;;;;;36.65;25.62;;;;;;;6.55;87.15;101173.70;1651229;84;26046;-77
2022/04/27 05:06:47;;;;;;;35.50;25.05;;;;;;;6.60;87.21;101174.11;1647347;84;25864;-77
2022/04/27 05:09:22;;;;;;;33.98;24.18;;;;;;;6.63;87.12;101178.30;1607745;85;25858;-77
2022/04/27 05:11:50;;;;;;;34.18;22.87;;;;;;;6.65;87.23;101181.14;1602346;87;25359;-76
2022/04/27 05:14:16;;;;;;;32.17;22.55;;;;;;;6.67;87.42;101189.81;1603977;87;27482;-77
2022/04/27 05:16:56;;;;;;;36.08;23.40;;;;;;;6.69;87.40;101189.69;1602838;87;25789;-77
2022/04/27 05:19:40;;;;;;;33.00;23.55;;;;;;;6.69;87.57;101192.34;1599842;87;26385;-77
2022/04/27 05:22:20;;;;;;;35.13;24.00;;;;;;;6.72;87.68;101197.36;1600286;87;26394;-77
2022/04/27 05:24:49;;;;;;;37.95;25.43;;;;;;;6.77;87.83;101199.95;1604069;87;26600;-75
2022/04/27 05:27:36;;;;;;;32.85;22.20;;;;;;;6.83;88.17;101196.69;1599004;87;27502;-75
2022/04/27 05:33:23;;;;;;;26.57;19.00;;;;;;;6.97;88.36;101208.16;1597541;84;25911;-75
2022/04/27 05:35:59;;;;;;;30.55;18.48;;;;;;;7.07;88.09;101208.61;1633819;84;26989;-75
2022/04/27 05:38:27;;;;;;;24.95;17.27;;;;;;;7.14;88.31;101212.36;1641423;84;25915;-75
2022/04/27 05:40:54;;;;;;;29.90;18.27;;;;;;;7.24;87.75;101210.46;1645732;84;27473;-75
2022/04/27 05:43:37;;;;;;;22.60;15.40;;;;;;;7.37;87.96;101214.94;1536730;89;25875;-75
2022/04/27 05:46:22;;;;;;;22.45;15.60;;;;;;;7.46;87.23;101218.84;1628087;85;25773;-74
2022/04/27 05:48:52;;;;;;;;;;;;;;;7.56;87.11;101223.63;1604735;88;26588;-75
2022/04/27 05:51:39;;;;;;;21.85;14.20;;;;;;;7.72;86.66;101222.92;1559009;91;25834;-75
2022/04/27 05:54:14;;;;;;;19.02;13.58;;;;;;;7.84;86.29;101232.88;1640788;84;27453;-74
2022/04/27 05:56:57;;;;;;;19.17;13.03;;;;;;;7.92;85.69;101235.59;1649928;84;25914;-74
2022/04/27 05:59:38;;;;;;;16.75;12.40;;;;;;;8.03;85.72;101230.02;1605834;84;25822;-75
2022/04/27 06:02:24;;;;;;;18.23;13.05;;;;;;;8.14;84.95;101233.78;1561855;89;25836;-75
2022/04/27 06:04:51;;;;;;;16.80;11.43;;;;;;;8.23;84.99;101240.34;1561860;90;26133;-75
2022/04/27 06:07:18;;;;;;;20.50;11.68;;;;;;;8.34;84.52;101245.98;1587965;85;27517;-75
2022/04/27 06:09:45;;;;;;;15.68;10.80;;;;;;;8.41;83.86;101249.67;1587947;88;26476;-75
2022/04/27 06:12:13;;;;;;;18.10;10.53;;;;;;;8.48;83.37;101253.41;1613244;86;25833;-75
2022/04/27 06:14:39;;;;;;;16.57;10.32;;;;;;;8.55;83.08;101250.45;1649552;84;26944;-75
2022/04/27 06:17:08;;;;;;;17.52;10.65;;;;;;;8.63;82.98;101257.66;1647832;84;25299;-75
2022/04/27 06:19:34;;;;;;;15.83;10.18;;;;;;;8.71;83.03;101254.54;1648665;84;27461;-75
2022/04/27 06:22:04;;;;;;;13.08;9.50;;;;;;;8.79;82.18;101255.09;1629667;85;25832;-75
2022/04/27 06:24:31;;;;;;;14.65;9.73;;;;;;;8.87;82.59;101257.31;1611439;86;25915;-74
2022/04/27 06:27:00;;;;;;;15.60;9.83;;;;;;;8.96;81.98;101259.52;1604062;88;25960;-75
2022/04/27 06:29:26;;;;;;;13.58;9.30;;;;;;;9.04;81.51;101264.41;1604071;88;26057;-75
2022/04/27 06:31:52;;;;;;;13.40;8.98;;;;;;;9.13;81.38;101263.41;1598222;88;27449;-75
2022/04/27 06:34:19;;;;;;;13.38;8.90;;;;;;;9.21;81.57;101260.80;1598267;88;25878;-75
2022/04/27 06:36:45;;;;;;;13.30;8.50;;;;;;;9.31;80.90;101265.50;1619003;87;26618;-75
2022/04/27 06:39:15;;;;;;;11.60;8.70;;;;;;;9.40;80.37;101269.52;1604161;87;25820;-75
2022/04/27 06:41:42;;;;;;;15.20;8.95;;;;;;;9.45;80.26;101264.05;1613173;86;25736;-75
2022/04/27 06:44:28;;;;;;;11.93;8.43;;;;;;;9.53;79.15;101269.89;1505623;93;28334;-74
2022/04/27 06:47:13;;;;;;;12.43;8.18;;;;;;;9.59;78.61;101269.23;1550402;90;25925;-74
2022/04/27 06:49:58;;;;;;;12.90;8.65;;;;;;;9.71;78.09;101264.73;1587827;87;25803;-75
2022/04/27 06:52:46;;;;;;;11.93;7.83;;;;;;;9.84;78.44;101273.13;1584862;88;25919;-74
2022/04/27 06:55:31;;;;;;;11.30;8.68;;;;;;;9.93;77.78;101268.13;1607308;88;25813;-75
2022/04/27 06:58:16;;;;;;;12.20;8.43;;;;;;;10.06;78.40;101272.48;1612911;86;27505;-75
2022/04/27 07:00:44;;;;;;;14.93;8.10;;;;;;;10.28;78.68;101265.66;1624765;86;26091;-75
2022/04/27 07:03:12;;;;;;;13.53;8.38;;;;;;;10.43;77.15;101263.12;1607958;87;26478;-74
2022/04/27 07:05:41;;;;;;;13.75;8.55;;;;;;;10.49;76.79;101263.78;1581955;88;25766;-74
2022/04/27 07:08:07;;;;;;;9.53;7.35;;;;;;;10.54;77.41;101266.27;1576353;88;25931;-75
2022/04/27 07:10:36;;;;;;;12.23;8.03;;;;;;;10.70;77.29;101268.92;1605214;86;27485;-74
2022/04/27 07:13:05;;;;;;;10.58;7.10;;;;;;;10.86;76.94;101273.41;1644650;86;26533;-75
2022/04/27 07:15:32;;;;;;;12.58;6.80;;;;;;;11.01;76.30;101274.87;1627151;86;26534;-75
2022/04/27 07:17:58;;;;;;;10.28;6.80;;;;;;;11.17;76.67;101278.81;1650544;84;25801;-74
2022/04/27 07:20:24;;;;;;;8.20;6.55;;;;;;;11.31;75.66;101274.88;1596734;86;25746;-75
2022/04/27 07:22:50;;;;;;;8.40;6.58;;;;;;;11.42;75.64;101277.18;1591832;87;28568;-75
2022/04/27 07:25:18;;;;;;;12.95;8.15;;;;;;;11.56;75.42;101282.31;1592289;87;25854;-75
2022/04/27 07:27:45;;;;;;;10.72;6.40;;;;;;;11.68;75.51;101287.63;1591978;87;25872;-75
2022/04/27 07:30:13;;;;;;;9.45;6.22;;;;;;;11.78;74.00;101287.42;1587520;87;26623;-75
2022/04/27 07:32:39;;;;;;;7.60;5.67;;;;;;;11.87;73.97;101285.83;1637015;84;25955;-75
2022/04/27 07:35:07;;;;;;;7.22;6.00;;;;;;;11.99;73.61;101284.92;1672378;84;28314;-75
2022/04/27 07:37:38;;;;;;;8.53;5.37;;;;;;;12.08;72.63;101288.69;1650898;84;26021;-77
2022/04/27 07:40:10;;;;;;;9.05;5.50;;;;;;;12.15;71.98;101292.84;1649049;84;25988;-76
2022/04/27 07:42:37;;;;;;;8.53;5.50;;;;;;;12.21;71.92;101301.55;1657393;84;26622;-76
2022/04/27 07:45:06;;;;;;;7.42;5.47;;;;;;;12.30;70.62;101297.75;1659912;84;26631;-76
2022/04/27 07:47:40;;;;;;;8.03;5.45;;;;;;;12.36;71.12;101298.36;1644247;84;27553;-76
2022/04/27 07:50:12;;;;;;;9.00;5.80;;;;;;;12.45;70.91;101301.31;1654395;84;26408;-76
2022/04/27 07:52:38;;;;;;;8.73;5.12;;;;;;;12.56;71.78;101292.81;1676996;84;26536;-76
2022/04/27 07:55:06;;;;;;;7.37;5.17;;;;;;;12.64;68.66;101294.61;1655531;84;26568;-76
2022/04/27 07:57:34;;;;;;;6.28;4.75;;;;;;;12.69;69.67;101298.91;1664675;84;25861;-76
2022/04/27 08:00:05;;;;;;;6.85;5.53;;;;;;;12.79;69.44;101302.99;1656853;84;27491;-76
2022/04/27 08:02:33;;;;;;;6.70;4.65;;;;;;;12.92;69.69;101306.38;1643052;84;26181;-76
2022/04/27 08:05:01;;;;;;;7.08;5.15;;;;;;;13.01;68.69;101302.59;1654044;84;26449;-76
2022/04/27 08:07:38;;;;;;;7.45;5.00;;;;;;;13.06;68.08;101310.98;1654334;84;25860;-75
2022/04/27 08:10:13;;;;;;;8.25;5.22;;;;;;;13.10;67.71;101304.20;1650095;84;25774;-75
2022/04/27 08:12:42;;;;;;;6.17;4.62;;;;;;;13.17;65.75;101312.37;1647908;85;27464;-75
2022/04/27 08:15:10;;;;;;;8.85;4.45;;;;;;;13.18;66.62;101310.83;1662151;84;26168;-75
2022/04/27 08:17:59;;;;;;;8.13;4.53;;;;;;;13.23;64.76;101317.84;1657723;84;25889;-75
2022/04/27 08:23:20;;;;;;;6.80;4.87;;;;;;;13.32;65.35;101310.00;1651396;84;26479;-76
2022/04/27 08:25:47;;;;;;;5.87;4.08;;;;;;;13.42;65.90;101311.88;1650516;84;27537;-75
2022/04/27 08:28:15;;;;;;;5.60;3.60;;;;;;;13.52;65.19;101312.91;1664172;84;25364;-76
2022/04/27 08:30:44;;;;;;;5.37;4.10;;;;;;;13.62;65.04;101310.78;1643939;84;26550;-75
2022/04/27 08:33:12;;;;;;;5.72;4.28;;;;;;;13.72;63.22;101314.84;1664042;84;26483;-75
2022/04/27 08:35:38;;;;;;;4.92;4.22;;;;;;;13.73;63.94;101316.49;1644455;84;25890;-76
2022/04/27 08:38:06;;;;;;;6.62;4.72;;;;;;;13.81;64.41;101320.95;1662392;84;27599;-75
2022/04/27 08:40:36;;;;;;;6.85;4.70;;;;;;;13.87;64.40;101319.67;1653556;84;25977;-75
2022/04/27 08:43:02;;;;;;;6.10;3.87;;;;;;;13.93;62.82;101318.06;1650791;84;25756;-75
2022/04/27 08:45:30;;;;;;;5.47;3.62;;;;;;;13.93;61.60;101314.02;1649847;84;26237;-75
2022/04/27 08:47:57;;;;;;;5.40;3.80;;;;;;;13.98;62.14;101319.69;1633609;85;25773;-75
2022/04/27 08:50:25;;;;;;;6.58;4.42;;;;;;;13.98;60.20;101317.50;1635010;85;27477;-76
2022/04/27 08:52:52;;;;;;;4.40;3.17;;;;;;;14.02;61.85;101310.19;1642019;84;25875;-76
2022/04/27 08:55:19;;;;;;;5.58;3.30;;;;;;;14.15;61.42;101314.37;1661182;84;25264;-75
2022/04/27 08:57:47;;;;;;;9.25;5.12;;;;;;;14.28;61.49;101318.53;1663384;84;25947;-75
2022/04/27 09:00:16;;;;;;;6.80;3.58;;;;;;;14.44;61.46;101312.05;1643742;86;25946;-75
2022/04/27 09:02:43;;;;;;;5.53;2.95;;;;;;;14.60;61.11;101318.53;1657122;84;27480;-75
2022/04/27 09:05:15;;;;;;;7.42;4.22;;;;;;;14.69;61.10;101307.38;1660469;84;25782;-76
2022/04/27 09:07:51;;;;;;;10.13;5.30;;;;;;;14.72;60.93;101307.52;1659391;84;25773;-75
2022/04/27 09:10:24;;;;;;;6.53;4.42;;;;;;;14.73;60.91;101315.94;1652689;84;25934;-75
2022/04/27 09:12:53;;;;;;;5.25;3.80;;;;;;;14.81;61.00;101313.59;1635608;85;26468;-75
2022/04/27 09:15:25;;;;;;;5.70;3.75;;;;;;;14.94;61.53;101311.83;1635399;85;28304;-75
2022/04/27 09:20:50;;;;;;;3.40;2.45;;;;;;;15.18;61.07;101315.37;1656766;84;25829;-75
2022/04/27 09:23:37;;;;;;;3.92;2.65;;;;;;;15.14;58.61;101315.46;1617447;86;26582;-76
2022/04/27 09:26:22;;;;;;;7.72;2.87;;;;;;;15.10;57.52;101316.89;1632067;84;25571;-75
2022/04/27 09:28:50;;;;;;;5.70;2.58;;;;;;;15.14;57.57;101314.11;1654985;84;27523;-76
2022/04/27 09:31:34;;;;;;;2.83;2.35;;;;;;;15.20;55.69;101317.90;1647563;84;26184;-76
2022/04/27 09:34:27;;;;;;;2.87;2.40;;;;;;;15.14;54.41;101318.70;1644987;84;25805;-75
2022/04/27 09:36:31;;;;;;;3.70;2.40;;;;;;;15.04;54.84;101319.04;1623533;87;26716;-75
2022/04/27 09:38:58;;;;;;;2.50;2.27;;;;;;;14.94;54.13;101315.88;1604807;87;25836;-75
2022/04/27 09:41:44;;;;;;;4.28;3.05;;;;;;;14.89;54.53;101318.83;1595456;88;27618;-76
2022/04/27 09:44:31;;;;;;;5.53;2.95;;;;;;;14.87;54.52;101315.50;1605712;87;26393;-76
2022/04/27 09:47:03;;;;;;;3.67;2.90;;;;;;;14.92;54.79;101314.40;1647154;85;26054;-76
2022/04/27 09:49:33;;;;;;;3.20;2.50;;;;;;;15.06;55.77;101311.58;1667696;84;26289;-75
2022/04/27 09:52:01;;;;;;;3.22;2.40;;;;;;;15.32;57.02;101316.29;1662072;84;25337;-76
2022/04/27 09:54:30;;;;;;;5.28;2.45;;;;;;;15.53;56.25;101314.86;1635810;84;27712;-75
2022/04/27 09:57:03;;;;;;;5.65;3.05;;;;;;;15.67;56.62;101322.50;1640719;84;25865;-75
2022/04/27 09:59:32;;;;;;;6.40;2.80;;;;;;;15.67;53.71;101325.20;1653124;84;25780;-76
2022/04/27 10:02:16;;;;;;;2.33;1.92;;;;;;;15.53;50.18;101319.41;1642218;84;26660;-76
2022/04/27 10:04:44;;;;;;;3.17;2.20;;;;;;;15.30;52.47;101329.16;1644643;84;25656;-75
2022/04/27 10:07:13;;;;;;;7.03;2.10;;;;;;;15.15;52.90;101327.09;1664117;84;27470;-76
2022/04/27 10:09:39;;;;;;;4.72;2.40;;;;;;;15.06;52.93;101331.81;1645712;84;25880;-75
2022/04/27 10:12:07;;;;;;;2.85;2.12;;;;;;;14.91;51.91;101324.86;1649221;84;25823;-75
2022/04/27 10:14:33;;;;;;;2.62;2.05;;;;;;;14.76;51.66;101323.62;1669933;84;25787;-75
2022/04/27 10:17:00;;;;;;;2.20;1.90;;;;;;;14.64;51.84;101328.73;1651494;84;26498;-75
2022/04/27 10:19:26;;;;;;;2.90;2.00;;;;;;;14.52;52.19;101327.58;1647845;86;27468;-76
2022/04/27 10:22:00;;;;;;;3.02;2.20;;;;;;;14.49;51.91;101332.02;1632010;86;26340;-76
2022/04/27 10:24:38;;;;;;;3.20;1.67;;;;;;;14.43;52.23;101328.77;1637018;86;26480;-76
2022/04/27 10:27:20;;;;;;;4.25;2.02;;;;;;;14.37;50.97;101330.05;1660525;84;26478;-75
2022/04/27 10:30:00;;;;;;;3.25;2.15;;;;;;;14.31;51.19;101326.76;1678745;83;26030;-76
2022/04/27 10:32:41;;;;;;;3.37;2.00;;;;;;;14.27;49.91;101328.98;1681422;85;27446;-75
2022/04/27 10:35:27;;;;;;;2.30;2.08;;;;;;;14.22;50.42;101335.98;1665865;83;25915;-75
2022/04/27 10:37:59;;;;;;;4.58;1.87;;;;;;;14.20;49.76;101336.70;1684005;83;25750;-75
2022/04/27 10:40:37;;;;;;;1.75;1.65;;;;;;;14.18;50.94;101345.48;1683066;83;25934;-76
2022/04/27 10:43:17;;;;;;;4.22;2.00;;;;;;;14.19;50.83;101335.02;1677204;83;25325;-75
2022/04/27 10:45:45;;;;;;;4.62;2.55;;;;;;;14.23;51.42;101341.68;1650202;84;27970;-76
2022/04/27 10:48:24;;;;;;;2.37;1.90;;;;;;;14.26;50.58;101332.72;1637955;84;25979;-76
2022/04/27 10:51:06;;;;;;;4.42;1.95;;;;;;;14.27;51.25;101339.77;1648806;83;25785;-76
2022/04/27 10:53:47;;;;;;;3.27;2.25;;;;;;;14.29;50.95;101340.94;1664775;83;27009;-76
2022/04/27 10:56:26;;;;;;;2.40;1.92;;;;;;;14.31;50.63;101336.19;1658868;83;25872;-76
2022/04/27 10:58:53;;;;;;;2.55;2.35;;;;;;;14.32;49.93;101334.67;1662989;83;27510;-76
2022/04/27 11:01:30;;;;;;;3.42;2.12;;;;;;;14.32;49.50;101336.52;1669296;84;25878;-75
2022/04/27 11:04:05;;;;;;;2.87;2.15;;;;;;;14.33;48.78;101339.02;1651282;83;25885;-75
2022/04/27 11:07:12;;;;;;;2.25;1.75;;;;;;;14.32;49.66;101337.36;1644615;83;25934;-75
2022/04/27 11:10:12;;;;;;;2.00;1.82;;;;;;;14.36;49.97;101335.11;1663587;83;25742;-76
2022/04/27 11:12:39;;;;;;;3.42;1.90;;;;;;;14.40;49.39;101339.08;1628265;86;27731;-75
2022/04/27 11:15:10;;;;;;;4.12;2.35;;;;;;;14.46;50.15;101336.45;1617646;85;25941;-75
2022/04/27 11:17:40;;;;;;;2.15;1.95;;;;;;;14.52;50.65;101335.66;1606347;89;25320;-75
2022/04/27 11:20:28;;;;;;;3.35;1.98;;;;;;;14.58;50.13;101334.87;1608328;88;25981;-75
2022/04/27 11:22:56;;;;;;;5.40;2.10;;;;;;;14.63;48.88;101339.18;1630915;85;25935;-76
2022/04/27 11:25:26;;;;;;;4.53;1.92;;;;;;;14.67;49.34;101332.88;1644200;85;27430;-75
2022/04/27 11:27:52;;;;;;;3.22;2.25;;;;;;;14.71;49.23;101332.83;1626614;85;25777;-76
2022/04/27 11:30:20;;;;;;;4.60;2.37;;;;;;;14.75;47.86;101338.66;1621559;86;25797;-76
2022/04/27 11:32:51;;;;;;;3.17;1.85;;;;;;;14.78;47.10;101335.58;1629594;86;26579;-76
2022/04/27 11:35:21;;;;;;;2.97;2.10;;;;;;;14.79;47.70;101331.33;1624936;86;26431;-76
2022/04/27 11:37:47;;;;;;;3.60;2.12;;;;;;;14.84;46.87;101325.34;1638163;86;27538;-76
2022/04/27 11:40:16;;;;;;;3.17;2.12;;;;;;;14.86;46.68;101327.33;1623007;86;25835;-76
2022/04/27 11:42:52;;;;;;;2.35;1.70;;;;;;;14.87;45.97;101328.47;1628634;86;25798;-76
2022/04/27 11:45:22;;;;;;;5.25;2.60;;;;;;;14.90;46.27;101329.44;1622657;86;26620;-75
2022/04/27 11:48:01;;;;;;;2.33;2.10;;;;;;;14.95;46.60;101330.20;1634733;85;25840;-76
2022/04/27 11:50:33;;;;;;;3.67;1.82;;;;;;;14.97;47.56;101327.59;1640178;86;28246;-76
2022/04/27 11:53:03;;;;;;;3.15;2.17;;;;;;;15.04;47.80;101333.88;1639944;87;26453;-75
2022/04/27 11:55:32;;;;;;;3.40;2.45;;;;;;;15.09;47.60;101326.55;1631576;86;25908;-76
2022/04/27 11:58:00;;;;;;;2.95;2.35;;;;;;;15.13;46.71;101324.60;1634876;85;25777;-75
2022/04/27 12:00:28;;;;;;;3.98;2.33;;;;;;;15.15;46.71;101327.94;1628105;85;26104;-76